Time;durP1;ratioP1;P1;durP2;ratioP2;P2;SDS_P1;SDS_P2;PMS_P1;PMS_P2;Temp;Humidity;BMP_temperature;BMP_pressure;BME280_temperature;BME280_humidity;BME280_pressure;Samples;Min_cycle;Max_cycle;Signal;HPM_P1;HPM_P2
2024/03/22 05:30:05;;;;;;;0.10;0.10;;;11.20;84.30;;;;;;6109419;23;20051;31
2024/03/22 05:32:31;;;;;;;0.10;0.10;;;11.20;84.40;;;;;;4990358;28;20051;-81
2024/03/22 05:34:56;;;;;;;0.05;0.05;;;11.30;84.20;;;;;;4994388;28;20023;-80
2024/03/22 05:37:22;;;;;;;0.10;0.10;;;11.20;84.10;;;;;;4994231;28;20037;-80
2024/03/22 05:39:48;;;;;;;0.10;0.10;;;11.20;84.10;;;;;;4994189;28;20029;-80
2024/03/22 05:42:14;;;;;;;0.10;0.10;;;11.20;84.20;;;;;;4999025;28;20038;-80
2024/03/22 05:44:40;;;;;;;0.10;0.10;;;11.20;84.10;;;;;;4996877;28;20014;-80
2024/03/22 05:47:05;;;;;;;0.05;0.05;;;11.10;84.30;;;;;;4999024;28;20109;-80
2024/03/22 05:49:31;;;;;;;0.00;0.00;;;11.10;84.20;;;;;;4999161;28;20027;-80
2024/03/22 05:51:57;;;;;;;0.10;0.10;;;11.20;84.10;;;;;;4997615;28;20117;-83
2024/03/22 05:54:22;;;;;;;0.10;0.10;;;11.20;84.10;;;;;;4979431;28;20506;-80
2024/03/22 05:56:48;;;;;;;0.10;0.10;;;11.20;83.70;;;;;;4994639;28;20026;-80
2024/03/22 05:59:13;;;;;;;0.10;0.10;;;11.30;83.70;;;;;;4979311;28;20035;-79
2024/03/22 06:01:39;;;;;;;0.00;0.00;;;11.30;83.60;;;;;;4985768;28;20034;-81
2024/03/22 06:04:05;;;;;;;0.10;0.10;;;11.20;83.60;;;;;;4978249;28;20037;-82
2024/03/22 06:06:33;;;;;;;0.08;0.08;;;11.20;83.80;;;;;;4994044;28;20075;-81
2024/03/22 06:09:00;;;;;;;0.10;0.10;;;11.20;83.90;;;;;;4999014;28;20121;-83
2024/03/22 06:11:26;;;;;;;0.00;0.00;;;11.20;83.90;;;;;;4981441;28;20046;-82
2024/03/22 06:13:51;;;;;;;0.10;0.10;;;11.20;84.00;;;;;;4996856;28;20026;-90
2024/03/22 06:16:17;;;;;;;0.10;0.10;;;11.10;84.00;;;;;;4978039;28;20557;-86
2024/03/22 06:18:43;;;;;;;0.10;0.10;;;11.10;84.30;;;;;;4997963;28;20034;-87
2024/03/22 06:21:08;;;;;;;0.10;0.10;;;11.10;84.20;;;;;;5006235;28;20097;-90
2024/03/22 06:23:35;;;;;;;0.10;0.10;;;11.10;84.30;;;;;;5017990;28;20030;-88
2024/03/22 06:26:00;;;;;;;0.10;0.10;;;11.10;84.50;;;;;;5018174;28;20048;-89
2024/03/22 06:28:28;;;;;;;0.00;0.00;;;11.10;84.40;;;;;;5017242;28;20112;-89
2024/03/22 06:30:54;;;;;;;0.10;0.10;;;11.20;84.50;;;;;;5001746;28;20518;-89
2024/03/22 06:33:20;;;;;;;0.10;0.10;;;11.20;84.40;;;;;;4997906;28;20100;-79
2024/03/22 06:35:46;;;;;;;0.10;0.10;;;11.20;84.40;;;;;;4999038;28;20054;-79
2024/03/22 06:38:12;;;;;;;0.10;0.10;;;11.30;84.20;;;;;;4992309;28;20037;-79
2024/03/22 06:40:38;;;;;;;0.10;0.10;;;11.30;84.20;;;;;;4986639;28;20022;-79
2024/03/22 06:43:04;;;;;;;0.10;0.10;;;11.30;84.10;;;;;;4982302;28;20502;-80
2024/03/22 06:45:29;;;;;;;0.10;0.10;;;11.40;83.90;;;;;;4979759;28;20057;-78
2024/03/22 06:47:55;;;;;;;0.10;0.10;;;11.40;84.00;;;;;;4978585;28;20125;-78
2024/03/22 06:50:24;;;;;;;0.10;0.10;;;11.30;84.00;;;;;;4979659;28;20041;-83
2024/03/22 06:52:51;;;;;;;0.10;0.10;;;11.30;83.80;;;;;;4978337;28;20053;-86
2024/03/22 06:55:17;;;;;;;0.10;0.10;;;11.30;84.40;;;;;;4996589;28;20445;-86
2024/03/22 06:57:45;;;;;;;0.10;0.10;;;11.30;84.30;;;;;;4996143;28;20038;-84
2024/03/22 07:00:13;;;;;;;0.10;0.10;;;11.30;84.30;;;;;;4989094;28;20126;-84
2024/03/22 07:02:39;;;;;;;0.10;0.10;;;11.30;84.10;;;;;;4998427;28;20409;-85
2024/03/22 07:05:05;;;;;;;0.10;0.10;;;11.50;84.00;;;;;;4989759;28;20029;-87
2024/03/22 07:07:31;;;;;;;0.10;0.10;;;11.50;83.80;;;;;;4995488;28;20445;-88
2024/03/22 07:09:57;;;;;;;0.10;0.10;;;11.60;83.60;;;;;;4997344;28;20029;-88
2024/03/22 07:12:22;;;;;;;0.00;0.00;;;11.50;83.50;;;;;;4994612;28;20061;-88
2024/03/22 07:14:48;;;;;;;0.10;0.10;;;11.50;83.60;;;;;;4998579;28;20026;-89
2024/03/22 07:17:15;;;;;;;0.10;0.10;;;11.50;83.50;;;;;;4997900;28;20034;-87
2024/03/22 07:19:40;;;;;;;0.08;0.08;;;11.50;83.60;;;;;;5005249;28;20113;-89
2024/03/22 07:22:07;;;;;;;0.10;0.10;;;11.50;83.40;;;;;;4995455;28;20160;-88
2024/03/22 07:24:32;;;;;;;0.00;0.00;;;11.40;83.60;;;;;;4982746;28;20834;-90
2024/03/22 07:26:58;;;;;;;0.10;0.10;;;11.30;83.80;;;;;;4996721;28;20114;-89
2024/03/22 07:29:23;;;;;;;0.00;0.00;;;11.30;83.70;;;;;;4997533;28;20026;-89
2024/03/22 07:31:49;;;;;;;0.10;0.10;;;11.30;83.80;;;;;;4997775;28;20054;-90
2024/03/22 07:34:15;;;;;;;0.03;0.03;;;11.30;84.10;;;;;;4993360;28;20046;-90
2024/03/22 07:36:40;;;;;;;0.10;0.10;;;11.40;84.00;;;;;;4994620;28;20109;-86
2024/03/22 07:39:07;;;;;;;0.10;0.10;;;11.40;84.00;;;;;;4989201;28;20031;-90
2024/03/22 07:41:33;;;;;;;0.10;0.10;;;11.40;83.80;;;;;;4994898;28;20064;-87
2024/03/22 07:44:00;;;;;;;0.10;0.10;;;11.40;83.80;;;;;;5002954;28;20482;-89
2024/03/22 07:46:26;;;;;;;0.10;0.10;;;11.50;83.90;;;;;;4995390;28;20506;-88
2024/03/22 07:48:52;;;;;;;0.10;0.10;;;11.50;83.70;;;;;;4984126;28;20035;-89
2024/03/22 07:51:17;;;;;;;0.10;0.10;;;11.50;83.70;;;;;;4981794;28;20022;-88
2024/03/22 07:53:43;;;;;;;0.10;0.10;;;11.50;83.80;;;;;;4993421;28;20501;-88
2024/03/22 07:56:09;;;;;;;0.10;0.10;;;11.40;83.60;;;;;;4997332;28;20030;-87
2024/03/22 07:58:34;;;;;;;0.10;0.10;;;11.40;83.80;;;;;;4996427;28;20189;-87
2024/03/22 08:01:00;;;;;;;0.10;0.10;;;11.40;84.00;;;;;;4989728;28;20026;-89
2024/03/22 08:03:26;;;;;;;0.10;0.10;;;11.30;83.90;;;;;;4984855;28;20113;-89
2024/03/22 08:05:51;;;;;;;0.10;0.10;;;11.40;84.10;;;;;;4996861;28;20026;-89
2024/03/22 08:08:17;;;;;;;0.10;0.10;;;11.40;84.20;;;;;;4991950;28;20398;-87
2024/03/22 08:10:43;;;;;;;0.10;0.10;;;11.50;84.10;;;;;;4992589;28;20026;-89
2024/03/22 08:13:09;;;;;;;0.10;0.10;;;11.50;83.90;;;;;;4992222;28;20509;-88
2024/03/22 08:15:35;;;;;;;0.10;0.10;;;11.60;83.80;;;;;;4995658;28;20563;-89
2024/03/22 08:18:01;;;;;;;0.10;0.10;;;11.60;83.80;;;;;;5005518;28;20049;-88
2024/03/22 08:20:28;;;;;;;0.10;0.10;;;11.50;83.80;;;;;;5006107;28;20436;-88
2024/03/22 08:22:53;;;;;;;0.10;0.10;;;11.60;84.00;;;;;;4997515;28;20038;-87
2024/03/22 08:25:20;;;;;;;0.10;0.10;;;11.70;83.80;;;;;;4979676;28;20023;-88
2024/03/22 08:27:47;;;;;;;0.00;0.00;;;11.70;83.60;;;;;;4993976;28;20030;-89
2024/03/22 08:30:13;;;;;;;0.10;0.10;;;11.80;83.50;;;;;;4995958;28;20467;-88
2024/03/22 08:32:38;;;;;;;0.10;0.10;;;11.80;83.30;;;;;;4995158;28;20041;-87
2024/03/22 08:35:04;;;;;;;0.10;0.10;;;11.90;83.40;;;;;;4996017;28;20027;-89
2024/03/22 08:37:31;;;;;;;0.10;0.10;;;12.00;83.00;;;;;;4995778;28;20040;-88
2024/03/22 08:39:57;;;;;;;0.10;0.10;;;12.30;82.80;;;;;;4991855;28;20026;-87
2024/03/22 08:42:23;;;;;;;0.10;0.10;;;12.40;82.10;;;;;;4977210;28;20034;-87
2024/03/22 08:44:48;;;;;;;0.00;0.00;;;12.40;82.00;;;;;;4988001;28;20022;-88
2024/03/22 08:47:14;;;;;;;0.10;0.10;;;12.40;82.00;;;;;;4996635;28;20429;-87
2024/03/22 08:49:41;;;;;;;0.10;0.10;;;12.50;81.80;;;;;;4995493;28;20054;-88
2024/03/22 08:52:07;;;;;;;0.10;0.10;;;12.60;81.70;;;;;;4995356;28;20034;-89
2024/03/22 08:54:33;;;;;;;0.10;0.10;;;12.80;81.60;;;;;;4995206;28;20030;-88
2024/03/22 08:56:59;;;;;;;0.10;0.10;;;12.90;81.20;;;;;;4990416;28;20042;-89
2024/03/22 08:59:26;;;;;;;0.10;0.10;;;13.00;80.90;;;;;;5008282;28;20034;-88
2024/03/22 09:01:52;;;;;;;0.10;0.10;;;13.10;80.20;;;;;;4992889;28;20034;-87
2024/03/22 09:04:17;;;;;;;0.10;0.10;;;13.20;80.40;;;;;;4994761;28;20095;-86
2024/03/22 09:06:43;;;;;;;0.10;0.10;;;13.20;79.70;;;;;;4994288;28;20026;-86
2024/03/22 09:09:09;;;;;;;0.10;0.10;;;13.10;80.00;;;;;;4994572;28;20073;-87
2024/03/22 09:11:34;;;;;;;0.10;0.10;;;13.10;79.70;;;;;;4994116;28;20038;-86
2024/03/22 09:14:00;;;;;;;0.10;0.10;;;13.10;79.90;;;;;;4996290;28;20125;-86
2024/03/22 09:16:25;;;;;;;0.10;0.10;;;13.20;79.70;;;;;;5001933;28;20084;-87
2024/03/22 09:18:51;;;;;;;0.10;0.10;;;13.30;79.30;;;;;;4996586;28;20030;-86
2024/03/22 09:21:17;;;;;;;0.10;0.10;;;13.20;78.90;;;;;;4994729;28;20034;-86
2024/03/22 09:23:42;;;;;;;0.10;0.10;;;13.30;79.20;;;;;;4991458;28;20093;-86
2024/03/22 09:26:08;;;;;;;0.10;0.10;;;13.30;79.20;;;;;;4992087;28;20031;-86
2024/03/22 09:28:34;;;;;;;0.10;0.10;;;13.40;78.70;;;;;;4987349;28;20048;-86
2024/03/22 09:31:07;;;;;;;0.10;0.10;;;13.50;78.80;;;;;;4995488;28;20065;-85
2024/03/22 09:33:33;;;;;;;;;;;13.40;78.50;;;;;;4992080;28;20486;-87
2024/03/22 09:35:59;;;;;;;0.10;0.10;;;13.50;78.90;;;;;;4977279;28;19906;-88
2024/03/22 09:38:25;;;;;;;0.10;0.10;;;13.50;78.60;;;;;;4987991;28;20034;-87
2024/03/22 09:40:54;;;;;;;0.10;0.10;;;13.50;78.50;;;;;;4994926;28;20105;-87
2024/03/22 09:43:23;;;;;;;0.00;0.00;;;13.50;78.00;;;;;;4988763;28;20027;-87
2024/03/22 09:45:52;;;;;;;0.10;0.10;;;13.40;78.30;;;;;;4999546;28;20026;-87
2024/03/22 09:48:21;;;;;;;0.10;0.10;;;13.50;78.30;;;;;;5011100;28;20113;-87
2024/03/22 09:50:47;;;;;;;0.10;0.10;;;13.30;78.10;;;;;;4994936;28;20393;-86
2024/03/22 09:53:17;;;;;;;0.10;0.10;;;13.40;78.30;;;;;;4997285;28;20098;-88
2024/03/22 09:55:44;;;;;;;0.10;0.10;;;13.30;78.30;;;;;;4998516;28;20093;-86
2024/03/22 09:58:13;;;;;;;0.10;0.10;;;13.40;78.50;;;;;;4999516;28;20027;-89
2024/03/22 10:00:40;;;;;;;0.10;0.10;;;13.50;77.80;;;;;;5001626;28;20051;-88
2024/03/22 10:03:06;;;;;;;0.10;0.10;;;13.60;77.50;;;;;;4998009;28;20433;-86
2024/03/22 10:05:32;;;;;;;0.10;0.10;;;13.70;77.20;;;;;;4988187;28;20022;-88
2024/03/22 10:07:58;;;;;;;0.10;0.10;;;13.80;76.60;;;;;;4998103;28;20139;-86
2024/03/22 10:10:23;;;;;;;0.10;0.10;;;13.80;76.50;;;;;;4996958;28;20023;-87
2024/03/22 10:12:49;;;;;;;0.10;0.10;;;14.00;76.30;;;;;;5014339;28;20037;-84
2024/03/22 10:15:16;;;;;;;0.10;0.10;;;14.00;76.00;;;;;;4996680;28;20026;-85
2024/03/22 10:17:42;;;;;;;0.10;0.10;;;14.10;75.30;;;;;;4978032;28;20035;-85
2024/03/22 10:20:13;;;;;;;0.10;0.10;;;14.10;74.90;;;;;;4979911;28;20102;-85
2024/03/22 10:22:55;;;;;;;0.10;0.10;;;14.10;74.80;;;;;;4978790;28;20027;-85
2024/03/22 10:25:20;;;;;;;0.10;0.10;;;14.20;75.10;;;;;;4981258;28;20026;-85
2024/03/22 10:27:48;;;;;;;0.10;0.10;;;14.30;74.60;;;;;;4997843;28;20037;-84
2024/03/22 10:30:16;;;;;;;0.10;0.10;;;14.50;74.40;;;;;;4998109;28;20026;-85
2024/03/22 10:32:45;;;;;;;0.10;0.10;;;14.70;73.30;;;;;;4993012;28;20676;-86
2024/03/22 10:35:15;;;;;;;0.10;0.10;;;14.90;73.10;;;;;;4992924;28;20026;-86
2024/03/22 10:37:41;;;;;;;0.20;0.20;;;15.00;72.80;;;;;;5006563;28;20049;-88
2024/03/22 10:40:10;;;;;;;0.10;0.10;;;15.20;72.30;;;;;;5011114;28;20065;-85
2024/03/22 10:42:37;;;;;;;0.10;0.10;;;15.50;71.80;;;;;;4991666;28;20062;-86
2024/03/22 10:45:04;;;;;;;0.10;0.10;;;15.60;70.30;;;;;;4995867;28;20481;-86
2024/03/22 10:47:31;;;;;;;0.10;0.10;;;15.70;70.70;;;;;;4997457;28;20019;-86
2024/03/22 10:50:06;;;;;;;0.10;0.10;;;15.80;70.50;;;;;;4996742;28;20050;-86
2024/03/22 10:52:47;;;;;;;0.10;0.10;;;15.80;69.70;;;;;;4995177;28;20034;-86
2024/03/22 10:55:33;;;;;;;0.10;0.10;;;15.80;69.90;;;;;;4997119;28;20548;-84
2024/03/22 10:57:59;;;;;;;0.10;0.10;;;15.70;70.00;;;;;;5002157;28;20125;-84
2024/03/22 11:00:32;;;;;;;0.10;0.10;;;15.80;70.30;;;;;;4995869;28;20041;-85
2024/03/22 11:02:58;;;;;;;0.10;0.10;;;15.80;69.60;;;;;;4991949;28;20460;-85
2024/03/22 11:05:26;;;;;;;0.10;0.10;;;15.90;69.30;;;;;;4998639;28;20053;-84
2024/03/22 11:08:04;;;;;;;0.10;0.10;;;15.90;68.90;;;;;;4996675;28;20069;-85
2024/03/22 11:10:31;;;;;;;0.10;0.10;;;15.80;68.90;;;;;;4995135;28;20030;-85
2024/03/22 11:13:04;;;;;;;0.10;0.10;;;15.80;69.10;;;;;;5015043;28;20046;-83
2024/03/22 11:15:32;;;;;;;0.10;0.10;;;15.70;69.20;;;;;;4991450;28;20031;-81
2024/03/22 11:17:59;;;;;;;0.10;0.10;;;15.60;69.40;;;;;;4988148;28;20042;-82
2024/03/22 11:20:27;;;;;;;0.10;0.10;;;15.50;69.60;;;;;;4976428;28;20058;-85
2024/03/22 11:22:53;;;;;;;0.10;0.10;;;15.50;69.70;;;;;;4977903;28;20035;-83
2024/03/22 11:25:20;;;;;;;0.10;0.10;;;15.60;70.00;;;;;;4981177;28;20130;-84
2024/03/22 11:27:46;;;;;;;0.10;0.10;;;15.50;70.10;;;;;;5002153;28;20069;-83
2024/03/22 11:30:12;;;;;;;0.10;0.10;;;15.50;70.50;;;;;;4993326;28;20027;-83
2024/03/22 11:32:44;;;;;;;0.10;0.10;;;15.60;71.00;;;;;;4989056;28;20041;-80
2024/03/22 11:35:11;;;;;;;0.10;0.10;;;15.60;71.60;;;;;;4992717;28;20033;-73
2024/03/22 11:37:41;;;;;;;0.10;0.10;;;15.70;70.60;;;;;;4989296;28;20087;-73
2024/03/22 11:40:10;;;;;;;0.10;0.10;;;15.80;71.00;;;;;;4995640;28;20018;-72
2024/03/22 11:42:37;;;;;;;0.10;0.10;;;15.80;70.40;;;;;;4996655;28;20113;-72
2024/03/22 11:45:04;;;;;;;0.10;0.10;;;16.00;70.50;;;;;;4996798;28;20457;-72
2024/03/22 11:47:30;;;;;;;0.10;0.10;;;16.00;69.00;;;;;;4979976;28;20030;-72
2024/03/22 11:49:56;;;;;;;0.10;0.10;;;16.00;68.90;;;;;;4977047;28;20031;-72
2024/03/22 11:52:26;;;;;;;0.10;0.10;;;16.10;68.60;;;;;;4988322;28;20105;-72
2024/03/22 11:54:52;;;;;;;0.10;0.10;;;16.20;67.60;;;;;;4996438;28;20026;-72
2024/03/22 11:57:18;;;;;;;0.10;0.10;;;16.20;68.90;;;;;;4977890;28;20027;-72
2024/03/22 11:59:44;;;;;;;0.10;0.10;;;16.30;68.30;;;;;;4977267;28;20082;-74
2024/03/22 12:02:10;;;;;;;0.10;0.10;;;16.40;68.40;;;;;;4998563;28;20468;-72
2024/03/22 12:04:40;;;;;;;0.10;0.10;;;16.30;68.00;;;;;;5001537;28;20038;-73
2024/03/22 12:07:08;;;;;;;0.10;0.10;;;16.30;68.00;;;;;;4976850;28;20110;-74
2024/03/22 12:09:34;;;;;;;0.10;0.10;;;16.30;67.30;;;;;;4984344;28;20120;-83
2024/03/22 12:12:00;;;;;;;0.10;0.10;;;16.30;66.90;;;;;;4984963;28;20070;-82
2024/03/22 12:14:25;;;;;;;0.10;0.10;;;16.30;68.60;;;;;;4995454;28;20026;-86
2024/03/22 12:16:51;;;;;;;0.10;0.10;;;16.30;67.40;;;;;;4999862;28;20405;-85
2024/03/22 12:19:17;;;;;;;0.10;0.10;;;16.30;68.00;;;;;;5001126;28;20019;-84
2024/03/22 12:21:43;;;;;;;0.00;0.00;;;16.40;67.60;;;;;;5004801;28;20087;-85
2024/03/22 12:24:08;;;;;;;0.10;0.10;;;16.50;66.10;;;;;;4998874;28;20026;-86
2024/03/22 12:26:34;;;;;;;0.10;0.10;;;16.50;65.10;;;;;;4995399;28;20027;-86
2024/03/22 12:28:59;;;;;;;0.10;0.10;;;16.60;65.00;;;;;;4993613;28;20505;-86
2024/03/22 12:31:25;;;;;;;0.10;0.10;;;16.60;66.20;;;;;;4993860;28;20058;-86
2024/03/22 12:33:51;;;;;;;0.10;0.10;;;16.70;66.30;;;;;;4994615;28;20057;-85
2024/03/22 12:36:16;;;;;;;0.10;0.10;;;16.70;66.50;;;;;;4991220;28;20032;-85
2024/03/22 12:38:42;;;;;;;0.10;0.10;;;16.80;65.00;;;;;;4996482;28;20041;-86
2024/03/22 12:41:08;;;;;;;0.10;0.10;;;16.80;64.30;;;;;;4992887;28;20049;-84
2024/03/22 12:43:33;;;;;;;0.10;0.10;;;16.80;63.20;;;;;;5019588;28;20056;-85
2024/03/22 12:45:59;;;;;;;0.10;0.10;;;16.80;62.80;;;;;;4996358;28;20621;-85
2024/03/22 12:48:25;;;;;;;0.10;0.10;;;16.90;63.40;;;;;;4986469;28;20059;-85
2024/03/22 12:50:51;;;;;;;0.00;0.00;;;16.90;63.40;;;;;;4991519;28;20023;-82
2024/03/22 12:53:16;;;;;;;0.10;0.10;;;17.00;61.90;;;;;;4983889;28;20027;-86
2024/03/22 12:55:42;;;;;;;0.10;0.10;;;16.90;61.80;;;;;;4994063;28;20023;-85
2024/03/22 12:58:08;;;;;;;0.10;0.10;;;16.80;60.10;;;;;;4994968;28;20046;-88
2024/03/22 13:00:33;;;;;;;0.10;0.10;;;16.80;60.40;;;;;;4997241;28;20026;-87
2024/03/22 13:02:59;;;;;;;0.10;0.10;;;16.80;62.40;;;;;;4992391;28;20031;-87
2024/03/22 13:05:25;;;;;;;0.10;0.10;;;16.80;62.00;;;;;;4984703;28;20037;-87
2024/03/22 13:07:52;;;;;;;0.10;0.10;;;17.00;61.90;;;;;;4995568;28;20415;-88
2024/03/22 13:10:18;;;;;;;0.10;0.10;;;17.00;60.70;;;;;;4984138;28;20089;-88
2024/03/22 13:12:44;;;;;;;0.10;0.10;;;17.10;60.90;;;;;;4996771;28;20042;-88
2024/03/22 13:15:09;;;;;;;0.10;0.10;;;17.20;58.80;;;;;;4988624;28;20038;-88
2024/03/22 13:17:35;;;;;;;0.10;0.10;;;17.10;58.60;;;;;;4991007;28;20034;-88
2024/03/22 13:20:01;;;;;;;0.10;0.10;;;17.10;59.70;;;;;;5006184;28;20038;-89
2024/03/22 13:22:26;;;;;;;0.10;0.10;;;17.20;61.50;;;;;;5000224;28;20576;-89
2024/03/22 13:24:52;;;;;;;0.08;0.08;;;17.30;62.00;;;;;;4995264;28;20108;-89
2024/03/22 13:27:20;;;;;;;0.00;0.00;;;17.30;61.70;;;;;;4993165;28;20030;-83
2024/03/22 13:29:46;;;;;;;0.10;0.10;;;17.30;59.80;;;;;;4991192;28;20085;-85
2024/03/22 13:32:12;;;;;;;0.00;0.00;;;17.30;60.70;;;;;;4996102;28;20529;-86
2024/03/22 13:34:38;;;;;;;0.10;0.10;;;17.30;60.30;;;;;;4998971;28;20026;-86
2024/03/22 13:37:06;;;;;;;0.10;0.10;;;17.30;61.10;;;;;;4997627;28;20031;-86
2024/03/22 13:39:32;;;;;;;0.00;0.00;;;17.30;59.50;;;;;;4994876;28;20030;-86
2024/03/22 13:41:57;;;;;;;0.10;0.10;;;17.30;58.60;;;;;;4997303;28;20080;-85
2024/03/22 13:44:24;;;;;;;0.10;0.10;;;17.30;59.00;;;;;;5008525;28;20033;-85
2024/03/22 13:46:51;;;;;;;0.10;0.10;;;17.30;59.70;;;;;;5013464;28;20508;-87
2024/03/22 13:49:18;;;;;;;0.10;0.10;;;17.30;59.30;;;;;;5016052;28;20032;-85
2024/03/22 13:51:44;;;;;;;0.10;0.10;;;17.30;59.40;;;;;;5012384;28;20517;-85
2024/03/22 13:54:12;;;;;;;0.10;0.10;;;17.50;60.60;;;;;;5014301;28;20056;-86
2024/03/22 13:56:38;;;;;;;0.10;0.10;;;17.60;60.10;;;;;;5013104;28;20022;-85
2024/03/22 13:59:10;;;;;;;0.10;0.10;;;17.60;59.30;;;;;;5009612;28;20034;-85
2024/03/22 14:01:36;;;;;;;0.00;0.00;;;17.60;59.70;;;;;;4987487;28;20542;-85
2024/03/22 14:04:04;;;;;;;0.00;0.00;;;17.70;59.20;;;;;;4997492;28;20026;-85
2024/03/22 14:06:32;;;;;;;0.10;0.10;;;17.60;58.60;;;;;;4992800;28;20030;-87
2024/03/22 14:09:01;;;;;;;0.00;0.00;;;17.60;59.50;;;;;;4994486;28;20031;-85
2024/03/22 14:11:28;;;;;;;0.10;0.10;;;17.70;59.60;;;;;;4998923;28;20037;-86
2024/03/22 14:13:53;;;;;;;0.00;0.00;;;17.70;59.80;;;;;;4999931;28;20038;-86
2024/03/22 14:16:19;;;;;;;0.10;0.10;;;17.70;59.40;;;;;;5007964;28;20515;-84
2024/03/22 14:18:45;;;;;;;0.10;0.10;;;17.70;59.30;;;;;;5007927;28;20038;-86
2024/03/22 14:21:14;;;;;;;0.00;0.00;;;17.70;59.70;;;;;;5005087;28;20023;-86
2024/03/22 14:23:39;;;;;;;0.10;0.10;;;17.80;60.30;;;;;;4996566;28;20413;-86
2024/03/22 14:26:05;;;;;;;0.00;0.00;;;18.00;61.70;;;;;;4997103;28;20033;-87
2024/03/22 14:28:31;;;;;;;0.10;0.10;;;18.30;61.30;;;;;;4994388;28;20014;-84
2024/03/22 14:30:57;;;;;;;0.00;0.00;;;18.40;59.90;;;;;;4995929;28;20121;-85
2024/03/22 14:33:23;;;;;;;0.00;0.00;;;18.50;59.00;;;;;;4996290;28;20030;-85
2024/03/22 14:35:49;;;;;;;0.00;0.00;;;18.40;60.30;;;;;;4997008;28;20413;-85
2024/03/22 14:38:14;;;;;;;0.00;0.00;;;18.50;59.70;;;;;;4995653;28;20788;-87
2024/03/22 14:40:40;;;;;;;0.10;0.10;;;18.30;59.60;;;;;;4999904;28;20480;-85
2024/03/22 14:43:06;;;;;;;0.10;0.10;;;18.30;59.40;;;;;;4994493;28;20110;-86
2024/03/22 14:45:32;;;;;;;0.10;0.10;;;18.30;58.70;;;;;;5012215;28;20027;-84
2024/03/22 14:47:58;;;;;;;0.10;0.10;;;18.50;58.90;;;;;;5000387;28;20474;-85
2024/03/22 14:50:24;;;;;;;0.10;0.10;;;18.60;59.20;;;;;;4996542;28;20026;-85
2024/03/22 14:52:50;;;;;;;0.10;0.10;;;18.80;59.90;;;;;;4996122;28;20066;-86
2024/03/22 14:55:16;;;;;;;0.00;0.00;;;18.80;59.10;;;;;;4997784;28;20115;-84
2024/03/22 14:57:41;;;;;;;0.00;0.00;;;18.80;57.80;;;;;;4994097;28;20023;-85
2024/03/22 15:00:10;;;;;;;0.00;0.00;;;18.80;59.20;;;;;;4995931;28;20041;-86
2024/03/22 15:02:36;;;;;;;0.03;0.03;;;18.80;59.30;;;;;;4996960;28;20714;-87
2024/03/22 15:05:04;;;;;;;0.10;0.10;;;18.60;58.10;;;;;;4995403;28;20025;-85
2024/03/22 15:07:30;;;;;;;0.10;0.10;;;18.60;58.60;;;;;;5001612;28;20022;-85
2024/03/22 15:09:56;;;;;;;0.10;0.10;;;18.50;58.10;;;;;;4997567;28;20030;-84
2024/03/22 15:12:22;;;;;;;0.10;0.10;;;18.30;58.60;;;;;;4991170;28;20026;-87
2024/03/22 15:14:52;;;;;;;0.00;0.00;;;18.30;58.40;;;;;;4996395;28;20044;-84
2024/03/22 15:17:22;;;;;;;0.00;0.00;;;18.20;59.90;;;;;;5005470;28;20488;-85
2024/03/22 15:19:49;;;;;;;0.08;0.08;;;18.20;60.10;;;;;;5002713;28;20034;-85
2024/03/22 15:22:19;;;;;;;0.00;0.00;;;18.10;60.00;;;;;;5003503;28;20033;-85
2024/03/22 15:24:46;;;;;;;0.00;0.00;;;17.90;60.40;;;;;;5007061;28;20033;-86
2024/03/22 15:27:12;;;;;;;0.00;0.00;;;17.80;60.70;;;;;;5009193;28;20025;-86
2024/03/22 15:29:40;;;;;;;0.00;0.00;;;17.60;61.10;;;;;;5003307;28;20029;-85
2024/03/22 15:32:07;;;;;;;0.00;0.00;;;17.40;62.00;;;;;;5007493;28;20061;-84
2024/03/22 15:34:33;;;;;;;0.00;0.00;;;17.30;62.10;;;;;;5005763;28;20040;-86
2024/03/22 15:47:59;;;;;;;0.00;0.00;;;16.50;63.60;;;;;;4967905;28;20396;-88
2024/03/22 15:50:27;;;;;;;0.10;0.10;;;16.40;64.10;;;;;;5010962;28;20053;-82
2024/03/22 15:52:53;;;;;;;0.00;0.00;;;16.40;64.40;;;;;;4998167;28;20093;-83
2024/03/22 15:55:18;;;;;;;0.05;0.05;;;16.30;64.60;;;;;;5000328;28;20057;-80
2024/03/22 15:57:44;;;;;;;0.00;0.00;;;16.20;65.00;;;;;;4998379;28;20111;-81
2024/03/22 16:00:11;;;;;;;0.00;0.00;;;16.20;65.60;;;;;;4996174;28;20104;-80
2024/03/22 16:02:38;;;;;;;0.00;0.00;;;16.10;65.60;;;;;;4995013;28;20022;-83
2024/03/22 16:05:05;;;;;;;0.00;0.00;;;16.10;65.50;;;;;;4994630;28;20064;-81
2024/03/22 16:07:30;;;;;;;0.00;0.00;;;16.10;65.50;;;;;;4995999;28;20015;-82
2024/03/22 16:09:56;;;;;;;0.10;0.10;;;16.00;65.00;;;;;;4995608;28;20100;-82
2024/03/22 16:12:22;;;;;;;0.10;0.10;;;15.90;64.90;;;;;;4994608;28;20031;-81
2024/03/22 16:14:47;;;;;;;0.10;0.10;;;15.90;65.30;;;;;;4995243;28;20030;-81
2024/03/22 16:17:13;;;;;;;0.00;0.00;;;15.80;65.50;;;;;;4994740;28;20034;-82
2024/03/22 16:19:38;;;;;;;0.00;0.00;;;15.80;65.90;;;;;;4994549;28;20045;-81
2024/03/22 16:22:04;;;;;;;0.00;0.00;;;15.80;66.40;;;;;;4996109;28;20034;-82
2024/03/22 16:24:30;;;;;;;0.00;0.00;;;15.70;67.20;;;;;;4993227;28;20045;-81
2024/03/22 16:26:56;;;;;;;0.00;0.00;;;15.60;68.30;;;;;;4995376;28;20026;-82
2024/03/22 16:29:24;;;;;;;0.00;0.00;;;15.50;69.70;;;;;;4994429;28;20041;-81
2024/03/22 16:31:53;;;;;;;0.00;0.00;;;15.40;71.30;;;;;;5007841;28;20471;-82
2024/03/22 16:34:19;;;;;;;0.03;0.03;;;15.20;73.60;;;;;;4996771;28;20090;-83
2024/03/22 16:36:45;;;;;;;0.00;0.00;;;15.30;74.50;;;;;;4994718;28;20453;-83
2024/03/22 16:39:10;;;;;;;0.00;0.00;;;15.00;76.10;;;;;;4993107;28;20803;-82
2024/03/22 16:41:36;;;;;;;0.03;0.03;;;14.80;77.40;;;;;;4993875;28;20112;-83
2024/03/22 16:44:02;;;;;;;0.00;0.00;;;14.30;76.70;;;;;;4992619;28;20034;-80
2024/03/22 16:46:27;;;;;;;0.00;0.00;;;14.10;77.00;;;;;;4994599;28;20061;-82
2024/03/22 16:48:53;;;;;;;0.10;0.10;;;13.80;77.50;;;;;;4999106;28;20414;-80
2024/03/22 16:51:19;;;;;;;0.00;0.00;;;13.50;78.20;;;;;;5001767;28;20026;-81
2024/03/22 16:53:45;;;;;;;0.00;0.00;;;13.40;78.50;;;;;;5002786;28;20037;-81
2024/03/22 16:56:10;;;;;;;0.00;0.00;;;13.20;78.90;;;;;;4999109;28;20037;-80
2024/03/22 16:58:36;;;;;;;0.00;0.00;;;13.20;79.50;;;;;;5005972;28;20053;-81
2024/03/22 17:01:03;;;;;;;0.00;0.00;;;13.20;79.30;;;;;;5007238;28;20034;-82
2024/03/22 17:03:29;;;;;;;0.00;0.00;;;13.30;79.10;;;;;;5003732;28;20022;-80
2024/03/22 17:05:54;;;;;;;0.00;0.00;;;13.20;79.00;;;;;;5006420;28;20085;-86
2024/03/22 17:08:23;;;;;;;0.10;0.10;;;13.10;79.30;;;;;;5004118;28;20409;-86
2024/03/22 17:10:51;;;;;;;0.00;0.00;;;12.80;79.20;;;;;;5004685;28;20026;-85
2024/03/22 17:13:17;;;;;;;0.10;0.10;;;12.60;78.30;;;;;;5006948;28;20556;-82
2024/03/22 17:15:46;;;;;;;0.10;0.10;;;12.40;78.00;;;;;;5007838;28;20118;-86
2024/03/22 17:18:12;;;;;;;0.10;0.10;;;12.30;77.70;;;;;;4999681;28;20040;-84
2024/03/22 17:20:38;;;;;;;0.08;0.08;;;12.30;78.10;;;;;;5023022;28;20409;-78
2024/03/22 17:23:04;;;;;;;0.10;0.10;;;12.20;77.70;;;;;;5006417;28;20028;-85
2024/03/22 17:25:30;;;;;;;0.10;0.10;;;12.00;78.40;;;;;;5005253;28;20018;-84
2024/03/22 17:27:58;;;;;;;0.10;0.10;;;12.00;78.30;;;;;;5007769;28;20032;-77
2024/03/22 17:30:24;;;;;;;0.10;0.10;;;11.80;78.20;;;;;;5008278;28;20037;-76
2024/03/22 17:32:50;;;;;;;0.08;0.08;;;11.90;78.60;;;;;;5008490;28;20088;-76
2024/03/22 17:35:16;;;;;;;0.10;0.10;;;11.90;77.90;;;;;;5006146;28;20393;-76
2024/03/22 17:37:42;;;;;;;0.10;0.10;;;11.90;78.20;;;;;;5009046;28;20019;-76
2024/03/22 17:40:09;;;;;;;0.10;0.10;;;11.80;77.90;;;;;;5007486;28;20485;-76
2024/03/22 17:42:35;;;;;;;0.10;0.10;;;11.70;78.20;;;;;;5009384;28;20116;-76
2024/03/22 17:45:04;;;;;;;0.10;0.10;;;11.70;78.20;;;;;;5007609;28;20022;-76
2024/03/22 17:47:30;;;;;;;0.10;0.10;;;11.70;78.20;;;;;;5000819;28;20045;-77
2024/03/22 17:49:55;;;;;;;0.10;0.10;;;11.60;78.50;;;;;;4994596;28;20030;-78
2024/03/22 17:52:24;;;;;;;0.10;0.10;;;11.70;78.60;;;;;;5008302;28;20027;-80
2024/03/22 17:54:52;;;;;;;0.08;0.08;;;11.70;78.90;;;;;;5006385;28;20038;-80
2024/03/22 17:57:18;;;;;;;0.10;0.10;;;11.70;79.00;;;;;;5009019;28;20057;-84
2024/03/22 17:59:44;;;;;;;0.10;0.10;;;11.70;79.20;;;;;;4980756;28;20964;-87
2024/03/22 18:02:57;;;;;;;0.10;0.10;;;11.80;79.30;;;;;;5017678;28;20030;-80
2024/03/22 18:06:14;;;;;;;0.10;0.10;;;11.60;79.10;;;;;;5001544;28;20050;-83
2024/03/22 18:08:40;;;;;;;0.10;0.10;;;11.50;80.00;;;;;;4978834;28;20068;-83
2024/03/22 18:11:58;;;;;;;0.10;0.10;;;11.70;80.00;;;;;;5025605;28;20033;-84
2024/03/22 18:14:24;;;;;;;0.10;0.10;;;11.70;79.90;;;;;;5013908;28;20041;-85
2024/03/22 18:16:53;;;;;;;0.03;0.03;;;11.60;80.30;;;;;;5008258;28;20094;-87
2024/03/22 18:19:19;;;;;;;0.10;0.10;;;11.50;80.30;;;;;;5025444;28;20026;-85
2024/03/22 18:21:46;;;;;;;0.10;0.10;;;11.50;80.20;;;;;;5026183;28;20062;-87
2024/03/22 18:24:40;;;;;;;0.10;0.10;;;11.60;80.50;;;;;;5017210;28;20116;-85
2024/03/22 18:27:08;;;;;;;0.10;0.10;;;11.50;80.70;;;;;;5015016;28;20042;-81